createdAt,value
2022-11-06T00:00:56.079Z,11.10
2022-11-06T00:01:56.169Z,11.10
2022-11-06T00:02:56.151Z,10.80
2022-11-06T00:03:56.077Z,11.10
2022-11-06T00:04:56.073Z,10.80
2022-11-06T00:05:56.070Z,10.80
2022-11-06T00:06:56.067Z,10.90
2022-11-06T00:07:56.067Z,11.20
2022-11-06T00:08:56.073Z,11.10
2022-11-06T00:09:56.057Z,11.40
2022-11-06T00:10:56.057Z,11.00
2022-11-06T00:11:56.052Z,12.70
2022-11-06T00:12:56.046Z,10.70
2022-11-06T00:13:56.073Z,11.10
2022-11-06T00:14:56.042Z,10.70
2022-11-06T00:15:56.038Z,11.20
2022-11-06T00:16:56.046Z,10.70
2022-11-06T00:17:56.032Z,11.20
2022-11-06T00:18:56.035Z,11.10
2022-11-06T00:19:56.028Z,11.10
2022-11-06T00:20:56.032Z,11.00
2022-11-06T00:21:56.026Z,10.70
2022-11-06T00:22:56.025Z,10.80
2022-11-06T00:23:56.073Z,10.80
2022-11-06T00:24:56.020Z,11.20
2022-11-06T00:25:56.016Z,11.20
2022-11-06T00:26:56.011Z,11.20
2022-11-06T00:27:56.013Z,11.20
2022-11-06T00:28:56.006Z,11.30
2022-11-06T00:29:56.026Z,11.40
2022-11-06T00:30:56.001Z,11.70
2022-11-06T00:31:55.997Z,11.20
2022-11-06T00:32:55.995Z,11.70
2022-11-06T00:33:55.998Z,11.50
2022-11-06T00:34:55.994Z,14.00
2022-11-06T00:35:55.994Z,12.10
2022-11-06T00:36:55.987Z,15.00
2022-11-06T00:37:55.989Z,12.00
2022-11-06T00:38:55.979Z,11.70
2022-11-06T00:39:55.983Z,12.20
2022-11-06T00:40:55.978Z,12.20
2022-11-06T00:41:55.978Z,12.30
2022-11-06T00:42:55.971Z,12.30
2022-11-06T00:43:55.971Z,12.10
2022-11-06T00:44:55.961Z,12.10
2022-11-06T00:45:55.989Z,12.30
2022-11-06T00:46:55.960Z,12.40
2022-11-06T00:47:55.963Z,12.00
2022-11-06T00:48:55.960Z,11.90
2022-11-06T00:49:55.955Z,12.00
2022-11-06T00:50:55.951Z,12.30
2022-11-06T00:51:55.947Z,11.80
2022-11-06T00:52:55.948Z,11.70
2022-11-06T00:53:55.945Z,11.90
2022-11-06T00:54:55.941Z,11.90
2022-11-06T00:55:55.940Z,11.90
2022-11-06T00:56:55.942Z,11.50
2022-11-06T00:57:55.930Z,12.00
2022-11-06T00:58:55.927Z,12.10
2022-11-06T00:59:55.929Z,11.80
2022-11-06T01:00:55.923Z,11.80
2022-11-06T01:01:56.121Z,11.70
2022-11-06T01:02:56.060Z,11.50
2022-11-06T01:03:55.925Z,11.90
2022-11-06T01:04:55.911Z,11.90
2022-11-06T01:05:55.909Z,12.10
2022-11-06T01:06:55.908Z,11.70
2022-11-06T01:07:55.905Z,12.40
2022-11-06T01:08:55.902Z,12.00
2022-11-06T01:09:55.900Z,11.80
2022-11-06T01:10:55.896Z,11.80
2022-11-06T01:12:13.228Z,11.80
2022-11-06T01:12:55.893Z,12.10
2022-11-06T01:13:55.890Z,12.10
2022-11-06T01:14:55.889Z,12.40
2022-11-06T01:15:55.883Z,12.10
2022-11-06T01:16:55.883Z,12.10
2022-11-06T01:17:55.902Z,11.90
2022-11-06T01:18:55.872Z,11.90
2022-11-06T01:19:55.876Z,11.80
2022-11-06T01:20:55.876Z,11.50
2022-11-06T01:21:55.869Z,12.60
2022-11-06T01:22:55.864Z,11.90
2022-11-06T01:23:55.865Z,11.40
2022-11-06T01:24:55.889Z,11.50
2022-11-06T01:25:55.856Z,12.00
2022-11-06T01:27:24.897Z,11.60
2022-11-06T01:27:55.857Z,11.60
2022-11-06T01:28:55.853Z,11.70
2022-11-06T01:29:55.844Z,12.00
2022-11-06T01:30:55.840Z,12.10
2022-11-06T01:31:55.842Z,11.90
2022-11-06T01:32:55.850Z,11.50
2022-11-06T01:33:55.856Z,11.70
2022-11-06T01:34:55.838Z,11.90
2022-11-06T01:35:55.833Z,12.10
2022-11-06T01:36:55.827Z,11.70
2022-11-06T01:37:55.827Z,12.00
2022-11-06T01:38:55.822Z,11.90
2022-11-06T01:39:55.821Z,11.80
2022-11-06T01:40:55.825Z,11.70
2022-11-06T01:41:55.815Z,11.80
2022-11-06T01:42:55.814Z,11.70
2022-11-06T01:43:55.811Z,11.70
2022-11-06T01:44:55.810Z,11.90
2022-11-06T01:45:55.806Z,11.60
2022-11-06T01:46:55.805Z,11.50
2022-11-06T01:47:55.798Z,11.80
2022-11-06T01:48:55.797Z,11.90
2022-11-06T01:49:55.823Z,11.70
2022-11-06T01:50:55.793Z,11.30
2022-11-06T01:51:55.793Z,11.80
2022-11-06T01:52:55.791Z,11.20
2022-11-06T01:53:55.784Z,11.60
2022-11-06T01:54:55.786Z,11.60
2022-11-06T01:55:55.779Z,11.60
2022-11-06T01:56:55.774Z,11.70
2022-11-06T01:57:55.772Z,11.80
2022-11-06T01:58:55.769Z,12.10
2022-11-06T01:59:55.767Z,11.70
2022-11-06T02:00:55.777Z,12.00
2022-11-06T02:01:55.922Z,12.10
2022-11-06T02:02:55.943Z,11.90
2022-11-06T02:03:55.760Z,12.20
2022-11-06T02:04:55.754Z,11.60
2022-11-06T02:05:55.776Z,11.70
2022-11-06T02:06:55.749Z,11.30
2022-11-06T02:07:55.750Z,11.40
2022-11-06T02:08:55.745Z,11.40
2022-11-06T02:09:55.740Z,11.70
2022-11-06T02:10:55.741Z,11.30
2022-11-06T02:11:55.740Z,11.70
2022-11-06T02:12:55.732Z,11.40
2022-11-06T02:13:55.729Z,11.50
2022-11-06T02:14:55.734Z,12.10
2022-11-06T02:15:55.725Z,11.60
2022-11-06T02:16:55.729Z,11.20
2022-11-06T02:17:55.723Z,11.60
2022-11-06T02:18:55.716Z,12.00
2022-11-06T02:19:55.718Z,14.60
2022-11-06T02:20:55.710Z,11.70
2022-11-06T02:21:55.731Z,12.10
2022-11-06T02:22:55.705Z,12.00
2022-11-06T02:23:55.755Z,12.30
2022-11-06T02:24:55.703Z,12.20
2022-11-06T02:25:55.701Z,12.10
2022-11-06T02:26:55.710Z,11.90
2022-11-06T02:27:55.692Z,12.10
2022-11-06T02:28:55.694Z,11.80
2022-11-06T02:29:55.696Z,12.10
2022-11-06T02:30:55.689Z,12.00
2022-11-06T02:31:55.693Z,12.20
2022-11-06T02:32:55.688Z,12.30
2022-11-06T02:33:55.677Z,12.70
2022-11-06T02:34:55.678Z,12.00
2022-11-06T02:35:55.674Z,11.90
2022-11-06T02:36:55.671Z,11.60
2022-11-06T02:37:55.691Z,11.90
2022-11-06T02:38:55.665Z,12.00
2022-11-06T02:39:55.661Z,11.90
2022-11-06T02:40:55.661Z,11.90
2022-11-06T02:41:55.657Z,11.60
2022-11-06T02:42:55.654Z,11.30
2022-11-06T02:43:55.651Z,12.10
2022-11-06T02:44:55.650Z,12.00
2022-11-06T02:45:55.642Z,12.00
2022-11-06T02:46:55.643Z,12.20
2022-11-06T02:47:55.637Z,11.90
2022-11-06T02:48:55.636Z,12.00
2022-11-06T02:49:55.635Z,12.00
2022-11-06T02:50:55.634Z,12.00
2022-11-06T02:51:55.641Z,12.20
2022-11-06T02:52:55.627Z,12.10
2022-11-06T02:53:55.657Z,12.00
2022-11-06T02:54:55.623Z,12.10
2022-11-06T02:55:55.622Z,12.50
2022-11-06T02:56:55.614Z,12.00
2022-11-06T02:57:55.616Z,11.90
2022-11-06T02:58:55.615Z,11.90
2022-11-06T02:59:55.612Z,12.10
2022-11-06T03:00:55.606Z,11.70
2022-11-06T03:01:55.760Z,11.80
2022-11-06T03:02:55.760Z,12.00
2022-11-06T03:03:55.603Z,11.80
2022-11-06T03:04:55.598Z,11.50
2022-11-06T03:05:55.591Z,11.40
2022-11-06T03:06:55.595Z,11.50
2022-11-06T03:07:55.593Z,11.30
2022-11-06T03:08:55.583Z,12.10
2022-11-06T03:09:55.609Z,11.60
2022-11-06T03:10:55.579Z,11.80
2022-11-06T03:11:55.580Z,11.60
2022-11-06T03:12:55.576Z,12.10
2022-11-06T03:13:55.575Z,11.90
2022-11-06T03:14:55.570Z,12.00
2022-11-06T03:15:55.568Z,12.70
2022-11-06T03:16:55.563Z,11.90
2022-11-06T03:17:55.566Z,11.80
2022-11-06T03:18:55.560Z,12.20
2022-11-06T03:19:55.558Z,11.90
2022-11-06T03:20:55.557Z,12.10
2022-11-06T03:21:55.549Z,11.80
2022-11-06T03:22:55.545Z,12.00
2022-11-06T03:23:55.598Z,11.80
2022-11-06T03:24:55.544Z,11.80
2022-11-06T03:25:55.563Z,11.80
2022-11-06T03:26:55.537Z,11.50
2022-11-06T03:27:55.542Z,11.70
2022-11-06T03:28:55.533Z,11.40
2022-11-06T03:29:55.535Z,12.00
2022-11-06T03:30:55.530Z,11.70
2022-11-06T03:31:55.529Z,11.70
2022-11-06T03:32:55.529Z,11.40
2022-11-06T03:33:55.524Z,12.00
2022-11-06T03:34:55.523Z,11.80
2022-11-06T03:35:55.518Z,11.70
2022-11-06T03:36:55.521Z,11.80
2022-11-06T03:37:55.514Z,12.00
2022-11-06T03:38:55.514Z,11.90
2022-11-06T03:39:55.511Z,11.40
2022-11-06T03:40:55.503Z,12.00
2022-11-06T03:41:55.620Z,13.40
2022-11-06T03:42:55.506Z,12.00
2022-11-06T03:43:55.502Z,11.60
2022-11-06T03:44:55.495Z,11.70
2022-11-06T03:45:55.492Z,11.80
2022-11-06T03:46:55.487Z,12.00
2022-11-06T03:47:55.481Z,12.10
2022-11-06T03:48:55.486Z,13.20
2022-11-06T03:49:55.481Z,12.00
2022-11-06T03:50:55.480Z,11.80
2022-11-06T03:51:55.479Z,11.50
2022-11-06T03:52:55.481Z,16.90
2022-11-06T03:53:55.479Z,12.00
2022-11-06T03:54:55.471Z,12.90
2022-11-06T03:55:55.465Z,11.90
2022-11-06T03:56:55.465Z,11.90
2022-11-06T03:57:55.485Z,11.90
2022-11-06T03:58:55.553Z,11.80
2022-11-06T03:59:55.458Z,12.50
2022-11-06T04:00:55.457Z,12.40
2022-11-06T04:01:55.625Z,12.50
2022-11-06T04:02:55.697Z,12.10
2022-11-06T04:03:55.454Z,12.50
2022-11-06T04:04:55.442Z,12.10
2022-11-06T04:05:55.443Z,12.40
2022-11-06T04:06:55.436Z,12.40
2022-11-06T04:07:55.439Z,12.30
2022-11-06T04:08:55.441Z,12.20
2022-11-06T04:09:55.430Z,12.50
2022-11-06T04:10:55.427Z,11.90
2022-11-06T04:11:55.426Z,12.30
2022-11-06T04:12:55.422Z,12.10
2022-11-06T04:13:55.438Z,12.30
2022-11-06T04:14:55.415Z,12.30
2022-11-06T04:15:55.418Z,12.00
2022-11-06T04:16:55.412Z,12.40
2022-11-06T04:17:55.410Z,12.10
2022-11-06T04:18:55.407Z,11.80
2022-11-06T04:19:55.407Z,11.90
2022-11-06T04:20:55.403Z,11.90
2022-11-06T04:21:55.402Z,11.80
2022-11-06T04:22:55.395Z,11.90
2022-11-06T04:23:55.455Z,12.40
2022-11-06T04:24:55.387Z,12.20
2022-11-06T04:25:55.389Z,12.30
2022-11-06T04:26:55.382Z,12.30
2022-11-06T04:27:55.383Z,12.30
2022-11-06T04:28:55.383Z,12.30
2022-11-06T04:29:55.395Z,12.30
2022-11-06T04:30:55.370Z,12.40
2022-11-06T04:31:55.373Z,12.10
2022-11-06T04:32:59.788Z,12.10
2022-11-06T04:33:55.373Z,12.20
2022-11-06T04:34:55.365Z,12.30
2022-11-06T04:35:55.361Z,12.10
2022-11-06T04:36:55.358Z,12.20
2022-11-06T04:37:55.351Z,12.50
2022-11-06T04:38:55.353Z,12.00
2022-11-06T04:39:55.351Z,12.10
2022-11-06T04:40:55.348Z,12.20
2022-11-06T04:41:55.345Z,11.90
2022-11-06T04:42:55.340Z,11.70
2022-11-06T04:43:55.333Z,12.00
2022-11-06T04:44:55.334Z,12.00
2022-11-06T04:45:55.351Z,11.90
2022-11-06T04:46:55.332Z,11.90
2022-11-06T04:47:55.320Z,12.10
2022-11-06T04:48:55.326Z,11.80
2022-11-06T04:49:55.323Z,11.90
2022-11-06T04:50:55.318Z,11.70
2022-11-06T04:51:55.315Z,12.20
2022-11-06T04:52:55.316Z,12.10
2022-11-06T04:53:55.306Z,12.00
2022-11-06T04:54:55.306Z,12.20
2022-11-06T04:55:55.310Z,12.00
2022-11-06T04:56:55.301Z,12.00
2022-11-06T04:57:55.296Z,16.40
2022-11-06T04:58:55.296Z,12.00
2022-11-06T04:59:55.292Z,11.50
2022-11-06T05:00:55.364Z,12.00
2022-11-06T05:01:55.467Z,11.40
2022-11-06T05:02:55.283Z,11.30
2022-11-06T05:03:55.281Z,11.80
2022-11-06T05:04:55.281Z,11.40
2022-11-06T05:05:55.273Z,11.90
2022-11-06T05:06:55.270Z,11.70
2022-11-06T05:07:55.269Z,14.20
2022-11-06T05:08:55.268Z,11.90
2022-11-06T05:09:55.271Z,12.20
2022-11-06T05:10:55.262Z,11.80
2022-11-06T05:11:55.260Z,11.80
2022-11-06T05:12:55.262Z,11.70
2022-11-06T05:13:55.251Z,11.70
2022-11-06T05:14:55.251Z,11.80
2022-11-06T05:15:55.247Z,12.10
2022-11-06T05:16:55.245Z,12.00
2022-11-06T05:17:55.256Z,12.00
2022-11-06T05:18:55.239Z,11.90
2022-11-06T05:19:55.230Z,11.80
2022-11-06T05:20:55.232Z,11.90
2022-11-06T05:21:55.227Z,13.30
2022-11-06T05:22:55.223Z,12.20
2022-11-06T05:23:55.273Z,12.10
2022-11-06T05:24:55.222Z,12.10
2022-11-06T05:25:55.216Z,12.00
2022-11-06T05:26:59.326Z,12.20
2022-11-06T05:27:55.209Z,12.30
2022-11-06T05:28:55.207Z,12.20
2022-11-06T05:29:55.201Z,12.50
2022-11-06T05:30:55.199Z,12.60
2022-11-06T05:31:55.191Z,12.50
2022-11-06T05:32:55.192Z,12.60
2022-11-06T05:33:55.206Z,11.90
2022-11-06T05:34:55.189Z,11.60
2022-11-06T05:35:55.189Z,11.70
2022-11-06T05:36:55.187Z,11.70
2022-11-06T05:37:55.181Z,11.70
2022-11-06T05:38:55.178Z,12.20
2022-11-06T05:39:55.174Z,12.00
2022-11-06T05:40:55.172Z,11.90
2022-11-06T05:41:55.166Z,12.00
2022-11-06T05:42:55.165Z,11.70
2022-11-06T05:43:55.158Z,11.90
2022-11-06T05:44:55.160Z,11.60
2022-11-06T05:45:55.159Z,11.90
2022-11-06T05:46:55.151Z,11.70
2022-11-06T05:47:55.153Z,11.90
2022-11-06T05:48:55.161Z,11.40
2022-11-06T05:49:55.162Z,11.60
2022-11-06T05:50:55.139Z,11.70
2022-11-06T05:51:55.156Z,12.00
2022-11-06T05:52:55.140Z,12.20
2022-11-06T05:53:55.155Z,11.80
2022-11-06T05:54:55.155Z,11.70
2022-11-06T05:55:55.126Z,12.20
2022-11-06T05:56:55.126Z,12.20
2022-11-06T05:57:55.138Z,12.30
2022-11-06T05:58:55.122Z,12.70
2022-11-06T05:59:55.138Z,12.20
2022-11-06T06:00:55.119Z,11.80
2022-11-06T06:01:55.232Z,12.00
2022-11-06T06:02:55.146Z,11.90
2022-11-06T06:03:55.101Z,12.00
2022-11-06T06:04:55.097Z,13.60
2022-11-06T06:05:55.116Z,11.40
2022-11-06T06:06:55.091Z,11.40
2022-11-06T06:07:55.086Z,11.40
2022-11-06T06:08:55.086Z,12.00
2022-11-06T06:09:55.083Z,11.40
2022-11-06T06:10:55.077Z,11.10
2022-11-06T06:11:55.076Z,11.80
2022-11-06T06:12:55.077Z,11.70
2022-11-06T06:13:55.070Z,11.90
2022-11-06T06:14:55.066Z,11.80
2022-11-06T06:15:55.060Z,11.60
2022-11-06T06:16:55.063Z,11.30
2022-11-06T06:17:55.059Z,11.50
2022-11-06T06:18:55.055Z,12.00
2022-11-06T06:19:55.052Z,11.80
2022-11-06T06:20:55.052Z,11.90
2022-11-06T06:21:55.063Z,12.80
2022-11-06T06:22:55.039Z,12.40
2022-11-06T06:23:55.048Z,12.40
2022-11-06T06:24:55.139Z,12.20
2022-11-06T06:25:55.034Z,12.10
2022-11-06T06:26:55.037Z,12.00
2022-11-06T06:27:55.028Z,12.20
2022-11-06T06:28:55.031Z,11.90
2022-11-06T06:29:55.022Z,12.00
2022-11-06T06:31:00.989Z,12.80
2022-11-06T06:31:55.015Z,12.50
2022-11-06T06:32:55.016Z,12.10
2022-11-06T06:33:55.013Z,14.60
2022-11-06T06:34:55.012Z,12.50
2022-11-06T06:35:54.999Z,12.50
2022-11-06T06:36:55.000Z,12.40
2022-11-06T06:37:55.022Z,12.30
2022-11-06T06:38:54.994Z,11.90
2022-11-06T06:39:54.994Z,12.20
2022-11-06T06:40:54.993Z,12.10
2022-11-06T06:41:54.984Z,12.10
2022-11-06T06:42:54.987Z,12.00
2022-11-06T06:43:54.986Z,12.00
2022-11-06T06:44:54.979Z,12.40
2022-11-06T06:45:54.975Z,12.70
2022-11-06T06:46:54.972Z,12.20
2022-11-06T06:47:54.974Z,12.40
2022-11-06T06:48:54.967Z,12.10
2022-11-06T06:49:54.960Z,12.20
2022-11-06T06:50:54.965Z,11.40
2022-11-06T06:51:54.965Z,11.50
2022-11-06T06:52:54.954Z,11.20
2022-11-06T06:53:54.977Z,11.20
2022-11-06T06:54:54.950Z,11.40
2022-11-06T06:55:54.944Z,11.00
2022-11-06T06:56:54.945Z,11.00
2022-11-06T06:57:54.937Z,11.00
2022-11-06T06:58:54.942Z,11.90
2022-11-06T06:59:54.933Z,11.30
2022-11-06T07:00:54.971Z,11.50
2022-11-06T07:01:55.095Z,11.00
2022-11-06T07:02:54.933Z,11.40
2022-11-06T07:03:57.603Z,11.60
2022-11-06T07:04:54.918Z,11.70
2022-11-06T07:05:54.916Z,11.20
2022-11-06T07:06:54.908Z,12.00
2022-11-06T07:07:54.910Z,11.90
2022-11-06T07:08:54.908Z,11.40
2022-11-06T07:09:54.933Z,11.40
2022-11-06T07:10:54.903Z,12.20
2022-11-06T07:11:54.896Z,12.10
2022-11-06T07:12:54.893Z,11.90
2022-11-06T07:13:54.894Z,12.00
2022-11-06T07:14:54.889Z,11.70
2022-11-06T07:15:54.887Z,11.30
2022-11-06T07:16:54.882Z,12.00
2022-11-06T07:17:54.881Z,12.00
2022-11-06T07:18:54.876Z,12.10
2022-11-06T07:19:54.877Z,11.70
2022-11-06T07:20:54.870Z,11.70
2022-11-06T07:21:54.867Z,11.50
2022-11-06T07:22:54.869Z,11.70
2022-11-06T07:23:54.861Z,12.00
2022-11-06T07:24:54.860Z,11.10
2022-11-06T07:25:54.884Z,11.30
2022-11-06T07:26:54.858Z,10.80
2022-11-06T07:27:59.164Z,10.30
2022-11-06T07:28:54.902Z,10.60
2022-11-06T07:29:54.843Z,10.30
2022-11-06T07:30:54.852Z,11.00
2022-11-06T07:31:54.839Z,11.10
2022-11-06T07:32:54.844Z,10.60
2022-11-06T07:33:54.835Z,11.50
2022-11-06T07:34:54.834Z,11.00
2022-11-06T07:35:54.830Z,10.60
2022-11-06T07:36:54.830Z,10.10
2022-11-06T07:37:54.824Z,10.70
2022-11-06T07:38:54.828Z,10.70
2022-11-06T07:39:54.824Z,10.40
2022-11-06T07:40:54.817Z,10.40
2022-11-06T07:41:54.837Z,10.50
2022-11-06T07:42:54.817Z,10.00
2022-11-06T07:43:54.812Z,10.70
2022-11-06T07:44:54.810Z,10.60
2022-11-06T07:45:54.805Z,10.30
2022-11-06T07:46:54.803Z,10.10
2022-11-06T07:47:58.974Z,9.90
2022-11-06T07:48:54.798Z,10.10
2022-11-06T07:49:54.794Z,9.80
2022-11-06T07:50:54.794Z,9.40
2022-11-06T07:51:54.792Z,10.30
2022-11-06T07:52:54.793Z,10.30
2022-11-06T07:53:54.784Z,9.80
2022-11-06T07:54:54.783Z,10.40
2022-11-06T07:55:54.783Z,10.20
2022-11-06T07:56:54.780Z,10.20
2022-11-06T07:57:54.798Z,10.20
2022-11-06T07:58:54.778Z,10.20
2022-11-06T07:59:54.772Z,10.60
2022-11-06T08:00:54.844Z,10.60
2022-11-06T08:01:54.982Z,10.70
2022-11-06T08:02:54.764Z,10.50
2022-11-06T08:03:54.759Z,10.60
2022-11-06T08:04:54.765Z,10.20
2022-11-06T08:05:54.761Z,10.30
2022-11-06T08:06:54.760Z,10.40
2022-11-06T08:07:54.755Z,15.20
2022-11-06T08:08:58.724Z,10.20
2022-11-06T08:09:54.752Z,10.10
2022-11-06T08:10:54.746Z,10.90
2022-11-06T08:11:54.745Z,11.20
2022-11-06T08:12:54.750Z,10.10
2022-11-06T08:13:54.843Z,10.20
2022-11-06T08:14:54.742Z,10.50
2022-11-06T08:15:54.735Z,10.60
2022-11-06T08:16:54.734Z,10.50
2022-11-06T08:17:54.736Z,10.50
2022-11-06T08:18:54.732Z,10.20
2022-11-06T08:19:54.728Z,10.20
2022-11-06T08:20:54.729Z,9.90
2022-11-06T08:21:54.727Z,9.50
2022-11-06T08:22:54.728Z,10.10
2022-11-06T08:23:54.722Z,10.20
2022-11-06T08:24:54.719Z,9.70
2022-11-06T08:25:54.717Z,10.00
2022-11-06T08:26:54.720Z,9.70
2022-11-06T08:27:54.715Z,10.10
2022-11-06T08:28:54.768Z,9.90
2022-11-06T08:29:54.738Z,10.20
2022-11-06T08:30:54.709Z,10.40
2022-11-06T08:31:54.708Z,10.80
2022-11-06T08:32:54.709Z,10.30
2022-11-06T08:33:54.708Z,10.30
2022-11-06T08:34:54.702Z,10.40
2022-11-06T08:35:54.697Z,10.50
2022-11-06T08:36:54.700Z,10.40
2022-11-06T08:37:54.697Z,10.40
2022-11-06T08:38:54.702Z,10.50
2022-11-06T08:39:54.699Z,10.40
2022-11-06T08:40:54.696Z,10.80
2022-11-06T08:41:54.691Z,10.30
2022-11-06T08:42:54.689Z,10.70
2022-11-06T08:43:54.691Z,10.10
2022-11-06T08:44:54.700Z,11.00
2022-11-06T08:45:54.714Z,10.60
2022-11-06T08:46:54.686Z,10.40
2022-11-06T08:47:54.688Z,11.00
2022-11-06T08:48:54.679Z,10.50
2022-11-06T08:49:54.682Z,11.30
2022-11-06T08:50:54.677Z,10.70
2022-11-06T08:51:54.681Z,10.60
2022-11-06T08:52:54.676Z,10.80
2022-11-06T08:53:54.796Z,10.30
2022-11-06T08:54:54.673Z,10.00
2022-11-06T08:55:54.671Z,10.50
2022-11-06T08:56:54.671Z,10.70
2022-11-06T08:57:54.669Z,10.70
2022-11-06T08:58:55.885Z,10.50
2022-11-06T08:59:54.664Z,10.30
2022-11-06T09:00:54.732Z,10.30
2022-11-06T09:01:54.825Z,10.00
2022-11-06T09:02:54.664Z,10.00
2022-11-06T09:03:54.664Z,10.40
2022-11-06T09:04:54.666Z,10.40
2022-11-06T09:05:54.665Z,10.20
2022-11-06T09:06:54.658Z,10.40
2022-11-06T09:07:54.660Z,10.50
2022-11-06T09:08:54.654Z,10.40
2022-11-06T09:09:54.659Z,10.30
2022-11-06T09:10:58.584Z,10.60
2022-11-06T09:11:54.661Z,10.30
2022-11-06T09:12:54.648Z,10.80
2022-11-06T09:13:54.650Z,10.30
2022-11-06T09:14:54.651Z,9.80
2022-11-06T09:15:54.655Z,10.40
2022-11-06T09:16:54.650Z,10.20
2022-11-06T09:17:54.704Z,10.40
2022-11-06T09:18:54.647Z,10.10
2022-11-06T09:19:54.645Z,10.40
2022-11-06T09:20:54.648Z,10.40
2022-11-06T09:21:55.088Z,10.10
2022-11-06T09:22:54.650Z,10.60
2022-11-06T09:23:54.657Z,10.30
2022-11-06T09:25:03.679Z,10.40
2022-11-06T09:25:54.642Z,10.10
2022-11-06T09:26:54.646Z,10.50
2022-11-06T09:27:59.220Z,10.70
2022-11-06T09:28:54.635Z,10.30
2022-11-06T09:29:54.639Z,10.20
2022-11-06T09:30:54.635Z,10.50
2022-11-06T09:31:54.637Z,10.40
2022-11-06T09:32:54.637Z,10.50
2022-11-06T09:33:54.658Z,10.40
2022-11-06T09:34:54.640Z,11.60
2022-11-06T09:35:54.635Z,10.50
2022-11-06T09:36:54.637Z,11.10
2022-11-06T09:37:54.646Z,10.50
2022-11-06T09:38:54.632Z,10.50
2022-11-06T09:39:54.633Z,10.40
2022-11-06T09:40:54.635Z,10.20
2022-11-06T09:41:54.633Z,10.40
2022-11-06T09:42:54.633Z,10.50
2022-11-06T09:44:09.987Z,10.90
2022-11-06T09:44:54.636Z,10.60
2022-11-06T09:45:55.084Z,10.90
2022-11-06T09:46:54.633Z,10.20
2022-11-06T09:47:54.632Z,10.20
2022-11-06T09:48:54.631Z,10.40
2022-11-06T09:49:54.662Z,10.90
2022-11-06T09:50:54.631Z,10.90
2022-11-06T09:51:54.633Z,11.00
2022-11-06T09:52:54.633Z,10.70
2022-11-06T09:53:54.627Z,10.80
2022-11-06T09:54:57.478Z,11.10
2022-11-06T09:55:54.633Z,11.10
2022-11-06T09:56:54.633Z,11.10
2022-11-06T09:57:54.634Z,10.80
2022-11-06T09:58:54.638Z,11.00
2022-11-06T09:59:54.628Z,11.00
2022-11-06T10:00:54.907Z,10.60
2022-11-06T10:01:54.820Z,9.90
2022-11-06T10:02:54.798Z,10.20
2022-11-06T10:03:54.633Z,10.70
2022-11-06T10:04:54.633Z,10.70
2022-11-06T10:05:54.661Z,10.40
2022-11-06T10:06:54.632Z,10.80
2022-11-06T10:07:54.630Z,11.00
2022-11-06T10:08:54.647Z,10.80
2022-11-06T10:09:54.635Z,10.60
2022-11-06T10:10:54.630Z,10.80
2022-11-06T10:11:54.633Z,11.10
2022-11-06T10:12:54.636Z,11.10
2022-11-06T10:13:54.636Z,10.70
2022-11-06T10:14:54.632Z,10.80
2022-11-06T10:15:54.634Z,11.10
2022-11-06T10:16:54.637Z,10.60
2022-11-06T10:17:54.633Z,10.50
2022-11-06T10:18:54.634Z,10.60
2022-11-06T10:19:54.631Z,11.10
2022-11-06T10:20:54.635Z,10.70
2022-11-06T10:21:54.650Z,10.80
2022-11-06T10:22:54.634Z,11.10
2022-11-06T10:23:54.640Z,10.90
2022-11-06T10:24:54.646Z,11.00
2022-11-06T10:25:54.639Z,10.70
2022-11-06T10:26:54.640Z,10.50
2022-11-06T10:27:54.637Z,10.70
2022-11-06T10:28:54.688Z,10.40
2022-11-06T10:29:54.636Z,10.50
2022-11-06T10:30:54.641Z,10.70
2022-11-06T10:31:54.649Z,10.30
2022-11-06T10:32:54.643Z,10.70
2022-11-06T10:33:54.640Z,10.40
2022-11-06T10:34:54.643Z,10.10
2022-11-06T10:35:54.649Z,10.80
2022-11-06T10:36:54.643Z,10.60
2022-11-06T10:37:54.757Z,10.60
2022-11-06T10:38:54.656Z,10.10
2022-11-06T10:39:54.652Z,10.20
2022-11-06T10:40:54.661Z,10.40
2022-11-06T10:41:54.680Z,10.60
2022-11-06T10:42:54.682Z,10.50
2022-11-06T10:43:54.742Z,10.40
2022-11-06T10:44:54.695Z,10.30
2022-11-06T10:45:54.675Z,10.60
2022-11-06T10:46:54.673Z,10.20
2022-11-06T10:47:54.707Z,10.20
2022-11-06T10:48:54.711Z,10.50
2022-11-06T10:49:54.685Z,10.80
2022-11-06T10:50:54.703Z,10.50
2022-11-06T10:51:54.669Z,10.00
2022-11-06T10:52:54.696Z,10.40
2022-11-06T10:53:54.812Z,10.30
2022-11-06T10:54:54.679Z,9.90
2022-11-06T10:55:54.686Z,10.40
2022-11-06T10:56:54.688Z,10.60
2022-11-06T10:57:54.695Z,10.50
2022-11-06T10:58:54.690Z,10.30
2022-11-06T10:59:54.709Z,10.60
2022-11-06T11:00:54.747Z,10.70
2022-11-06T11:01:54.882Z,10.50
2022-11-06T11:02:54.727Z,10.80
2022-11-06T11:03:54.725Z,10.60
2022-11-06T11:04:58.006Z,10.60
2022-11-06T11:05:54.732Z,10.50
2022-11-06T11:06:54.735Z,10.30
2022-11-06T11:07:54.745Z,10.10
2022-11-06T11:08:54.784Z,10.00
2022-11-06T11:09:54.777Z,10.60
2022-11-06T11:11:04.523Z,10.40
2022-11-06T11:11:54.770Z,10.40
2022-11-06T11:12:54.773Z,10.90
2022-11-06T11:13:54.782Z,10.70
2022-11-06T11:14:54.791Z,10.20
2022-11-06T11:15:54.795Z,10.60
2022-11-06T11:16:54.811Z,10.20
2022-11-06T11:17:54.810Z,10.70
2022-11-06T11:18:54.937Z,10.10
2022-11-06T11:19:54.832Z,10.60
2022-11-06T11:20:54.835Z,9.60
2022-11-06T11:21:54.841Z,8.50
2022-11-06T11:22:54.932Z,8.80
2022-11-06T11:23:54.867Z,8.80
2022-11-06T11:24:54.869Z,10.80
2022-11-06T11:25:54.902Z,10.80
2022-11-06T11:26:54.885Z,11.10
2022-11-06T11:27:54.897Z,11.40
2022-11-06T11:28:55.039Z,11.30
2022-11-06T11:29:54.912Z,11.10
2022-11-06T11:30:54.923Z,11.00
2022-11-06T11:31:54.937Z,11.60
2022-11-06T11:32:55.042Z,11.30
2022-11-06T11:33:54.953Z,11.40
2022-11-06T11:34:56.926Z,11.30
2022-11-06T11:35:54.974Z,11.60
2022-11-06T11:36:54.979Z,11.20
2022-11-06T11:37:54.991Z,11.10
2022-11-06T11:38:55.037Z,11.00
2022-11-06T11:39:55.012Z,11.20
2022-11-06T11:40:55.020Z,10.80
2022-11-06T11:41:55.055Z,11.20
2022-11-06T11:42:55.042Z,11.20
2022-11-06T11:43:55.053Z,10.60
2022-11-06T11:44:55.064Z,10.90
2022-11-06T11:45:55.074Z,11.20
2022-11-06T11:46:55.086Z,12.30
2022-11-06T11:47:55.101Z,11.10
2022-11-06T11:48:55.152Z,10.40
2022-11-06T11:49:55.112Z,10.70
2022-11-06T11:50:55.125Z,10.80
2022-11-06T11:51:55.140Z,10.80
2022-11-06T11:52:55.145Z,10.30
2022-11-06T11:53:55.155Z,10.80
2022-11-06T11:54:55.169Z,10.90
2022-11-06T11:55:55.180Z,11.00
2022-11-06T11:57:04.728Z,11.30
2022-11-06T11:57:55.231Z,11.10
2022-11-06T11:58:55.214Z,11.60
2022-11-06T11:59:55.233Z,11.30
2022-11-06T12:00:55.238Z,11.10
2022-11-06T12:01:55.391Z,10.70
2022-11-06T12:02:55.314Z,11.00
2022-11-06T12:03:55.261Z,11.50
2022-11-06T12:04:55.267Z,11.10
2022-11-06T12:05:55.301Z,11.20
2022-11-06T12:06:55.283Z,10.90
2022-11-06T12:07:55.294Z,10.50
2022-11-06T12:08:55.302Z,10.90
2022-11-06T12:09:55.314Z,10.70
2022-11-06T12:10:55.316Z,10.70
2022-11-06T12:11:55.321Z,11.00
2022-11-06T12:12:55.326Z,10.90
2022-11-06T12:13:55.440Z,10.40
2022-11-06T12:14:55.332Z,11.10
2022-11-06T12:15:55.342Z,11.30
2022-11-06T12:16:55.348Z,11.00
2022-11-06T12:17:55.359Z,10.90
2022-11-06T12:18:58.843Z,11.30
2022-11-06T12:19:55.367Z,11.20
2022-11-06T12:20:55.370Z,11.30
2022-11-06T12:21:55.376Z,11.70
2022-11-06T12:22:55.382Z,11.10
2022-11-06T12:23:55.382Z,11.10
2022-11-06T12:24:55.385Z,11.00
2022-11-06T12:25:55.387Z,11.20
2022-11-06T12:26:55.392Z,11.40
2022-11-06T12:27:55.398Z,11.20
2022-11-06T12:28:58.283Z,12.10
2022-11-06T12:29:55.423Z,11.10
2022-11-06T12:30:55.407Z,11.90
2022-11-06T12:31:55.408Z,11.20
2022-11-06T12:32:55.404Z,11.30
2022-11-06T12:34:16.009Z,10.40
2022-11-06T12:34:55.412Z,10.40
2022-11-06T12:35:55.414Z,10.80
2022-11-06T12:36:55.420Z,9.80
2022-11-06T12:37:55.417Z,10.90
2022-11-06T12:38:55.422Z,11.00
2022-11-06T12:39:55.426Z,11.00
2022-11-06T12:40:55.423Z,11.20
2022-11-06T12:41:55.424Z,11.70
2022-11-06T12:42:55.429Z,11.30
2022-11-06T12:43:55.430Z,10.80
2022-11-06T12:44:55.428Z,11.20
2022-11-06T12:45:55.511Z,10.90
2022-11-06T12:46:55.432Z,11.20
2022-11-06T12:47:55.438Z,10.90
2022-11-06T12:48:55.440Z,10.60
2022-11-06T12:49:55.445Z,10.80
2022-11-06T12:50:55.441Z,11.40
2022-11-06T12:51:55.437Z,11.30
2022-11-06T12:52:55.437Z,11.10
2022-11-06T12:53:55.439Z,11.20